Time;durP1;ratioP1;P1;durP2;ratioP2;P2;SDS_P1;SDS_P2;PMS_P1;PMS_P2;Temp;Humidity;BMP_temperature;BMP_pressure;BME280_temperature;BME280_humidity;BME280_pressure;Samples;Min_cycle;Max_cycle;Signal;HPM_P1;HPM_P2
2022/03/11 00:00:30;;;;;;;13.05;4.55;;;;;;;0.83;33.55;100211.88;4486914;31;20151;-79
2022/03/11 00:02:55;;;;;;;12.95;4.80;;;;;;;0.94;33.44;100215.41;4487241;31;20125;-77
2022/03/11 00:05:21;;;;;;;13.15;4.43;;;;;;;0.86;33.75;100214.47;4487062;31;20101;-76
2022/03/11 00:07:46;;;;;;;12.23;4.22;;;;;;;0.84;33.63;100217.94;4486647;31;20084;-75
2022/03/11 00:10:11;;;;;;;11.95;4.72;;;;;;;0.91;33.27;100215.38;4489106;31;20152;-77
2022/03/11 00:12:37;;;;;;;12.55;3.90;;;;;;;0.88;33.26;100211.91;4497949;31;20112;-76
2022/03/11 00:15:05;;;;;;;11.90;3.92;;;;;;;0.82;33.22;100207.53;4502711;31;20088;-75
2022/03/11 00:17:30;;;;;;;12.82;4.10;;;;;;;0.75;33.32;100213.50;4490918;31;20088;-77
2022/03/11 00:19:55;;;;;;;13.18;4.43;;;;;;;0.79;33.06;100210.09;4486877;32;20075;-76
2022/03/11 00:22:21;;;;;;;11.90;4.10;;;;;;;0.67;33.34;100210.84;4486340;31;20370;-75
2022/03/11 00:24:46;;;;;;;11.98;3.95;;;;;;;0.66;33.66;100218.66;4486821;31;20436;-74
2022/03/11 00:27:12;;;;;;;11.43;4.40;;;;;;;0.50;33.52;100217.63;4486680;31;20104;-75
2022/03/11 00:29:37;;;;;;;13.15;4.35;;;;;;;0.55;33.58;100209.03;4485779;31;20427;-76
2022/03/11 00:32:03;;;;;;;15.35;4.50;;;;;;;0.44;34.01;100202.00;4486905;31;20107;-76
2022/03/11 00:34:28;;;;;;;13.23;4.45;;;;;;;0.66;34.24;100211.72;4486654;31;20147;-75
2022/03/11 00:36:54;;;;;;;12.43;4.28;;;;;;;0.69;34.03;100211.75;4486852;31;20083;-76
2022/03/11 00:39:19;;;;;;;11.50;4.32;;;;;;;0.76;33.91;100216.13;4486616;31;20100;-76
2022/03/11 00:41:45;;;;;;;13.68;4.12;;;;;;;0.65;33.98;100209.13;4486533;31;20084;-76
2022/03/11 00:44:10;;;;;;;12.05;4.30;;;;;;;0.61;34.05;100207.34;4486715;31;20123;-76
2022/03/11 00:46:35;;;;;;;12.75;4.12;;;;;;;0.66;34.00;100201.34;4486642;31;20089;-76
2022/03/11 00:49:01;;;;;;;13.13;4.12;;;;;;;0.77;33.85;100207.50;4486825;31;20095;-77
2022/03/11 00:51:26;;;;;;;13.32;4.57;;;;;;;0.70;33.75;100207.44;4469563;32;20111;-76
2022/03/11 00:53:52;;;;;;;13.15;4.20;;;;;;;0.78;33.61;100204.03;4470641;32;20153;-79
2022/03/11 00:56:17;;;;;;;14.55;4.28;;;;;;;0.66;34.11;100211.72;4470558;32;20081;-77
2022/03/11 00:58:45;;;;;;;13.70;4.60;;;;;;;0.66;33.99;100224.69;4470232;32;20376;-77
2022/03/11 01:01:10;;;;;;;13.00;4.90;;;;;;;0.61;33.85;100208.22;4470616;32;20497;-77
2022/03/11 01:03:36;;;;;;;15.13;4.60;;;;;;;0.58;33.88;100206.47;4470409;32;20141;-77
2022/03/11 01:06:01;;;;;;;13.57;4.28;;;;;;;0.81;33.53;100215.28;4470571;32;20088;-77
2022/03/11 01:08:27;;;;;;;13.13;4.72;;;;;;;0.71;33.84;100212.63;4470644;32;20444;-79
2022/03/11 01:10:52;;;;;;;13.60;4.60;;;;;;;0.63;34.02;100206.50;4479885;32;20081;-78
2022/03/11 01:13:18;;;;;;;12.88;3.83;;;;;;;0.78;33.61;100205.78;4480718;31;20143;-78
2022/03/11 01:15:43;;;;;;;14.35;4.60;;;;;;;0.40;33.83;100203.69;4477989;32;20150;-85
2022/03/11 01:18:09;;;;;;;12.23;4.32;;;;;;;0.59;33.91;100197.81;4481852;32;20124;-80
2022/03/11 01:20:34;;;;;;;13.85;4.93;;;;;;;0.62;33.78;100199.59;4483047;31;20131;-78
2022/03/11 01:22:59;;;;;;;12.30;4.43;;;;;;;0.58;34.53;100203.88;4479111;31;20115;-80
2022/03/11 01:25:25;;;;;;;13.40;4.90;;;;;;;0.59;34.08;100200.41;4485466;32;20418;-79
2022/03/11 01:27:50;;;;;;;12.15;4.30;;;;;;;0.61;34.27;100205.63;4486067;31;20079;-80
2022/03/11 01:30:16;;;;;;;13.77;4.70;;;;;;;0.67;34.10;100207.41;4485969;31;20076;-79
2022/03/11 01:32:43;;;;;;;13.40;4.87;;;;;;;0.71;34.11;100210.03;4486120;31;20149;-78
2022/03/11 01:35:09;;;;;;;14.05;5.22;;;;;;;0.73;33.82;100210.03;4486150;31;20507;-79
2022/03/11 01:37:34;;;;;;;17.90;5.03;;;;;;;0.61;33.63;100208.22;4484816;32;20520;-79
2022/03/11 01:40:00;;;;;;;13.23;5.10;;;;;;;0.63;33.64;100192.69;4486862;31;20104;-79
2022/03/11 01:42:25;;;;;;;14.32;5.15;;;;;;;0.56;33.75;100195.22;4488282;32;20371;-79
2022/03/11 01:44:52;;;;;;;16.15;5.12;;;;;;;0.47;34.26;100186.50;4488336;32;20088;-79
2022/03/11 01:47:18;;;;;;;15.07;5.75;;;;;;;0.52;34.66;100192.56;4488261;31;20113;-79
2022/03/11 01:49:44;;;;;;;15.80;5.43;;;;;;;0.56;34.07;100195.22;4487039;32;20116;-79
2022/03/11 01:52:11;;;;;;;13.27;5.07;;;;;;;0.43;34.25;100192.50;4486930;31;20100;-80
2022/03/11 01:54:39;;;;;;;14.57;4.70;;;;;;;0.42;34.37;100191.62;4487777;31;20115;-80
2022/03/11 01:57:05;;;;;;;;;;;;;;;0.49;35.05;100187.38;4487132;32;20163;-80
2022/03/11 01:59:30;;;;;;;15.52;5.05;;;;;;;0.55;34.41;100185.69;4486950;32;20239;-80
2022/03/11 02:01:56;;;;;;;13.65;4.93;;;;;;;0.43;34.36;100179.56;4488014;31;20085;-78
2022/03/11 02:04:21;;;;;;;13.55;4.62;;;;;;;0.43;34.27;100184.75;4488023;31;20416;-80
2022/03/11 02:06:49;;;;;;;13.73;4.40;;;;;;;0.51;33.63;100198.62;4487780;31;20400;-80
2022/03/11 02:09:14;;;;;;;14.25;4.87;;;;;;;0.35;33.82;100195.03;4486889;32;20479;-80
2022/03/11 02:11:40;;;;;;;14.05;4.93;;;;;;;0.39;34.23;100199.38;4488006;31;20115;-80
2022/03/11 02:14:05;;;;;;;12.50;4.57;;;;;;;0.50;34.16;100183.91;4488124;31;20118;-80
2022/03/11 02:16:33;;;;;;;11.93;4.40;;;;;;;0.44;33.85;100184.72;4487739;31;20096;-80
2022/03/11 02:19:00;;;;;;;13.30;4.62;;;;;;;0.24;34.43;100189.72;4487752;31;20079;-80
2022/03/11 02:21:27;;;;;;;12.00;4.53;;;;;;;0.20;34.29;100193.16;4486483;32;20184;-80
2022/03/11 02:23:57;;;;;;;14.50;4.90;;;;;;;0.36;34.50;100186.37;4487912;31;20276;-80
2022/03/11 02:26:26;;;;;;;14.87;5.35;;;;;;;0.32;34.46;100182.03;4477132;32;20089;-80
2022/03/11 02:28:52;;;;;;;13.45;4.62;;;;;;;0.22;35.01;100188.84;4472043;32;20089;-79
2022/03/11 02:31:19;;;;;;;14.07;4.32;;;;;;;0.15;34.67;100184.44;4471894;32;20467;-80
2022/03/11 02:33:44;;;;;;;15.13;5.05;;;;;;;-0.08;35.21;100192.87;4472227;32;20080;-79
2022/03/11 02:36:10;;;;;;;16.12;4.72;;;;;;;0.07;35.03;100186.09;4471067;32;20106;-80
2022/03/11 02:38:36;;;;;;;12.75;4.78;;;;;;;0.30;34.78;100199.28;4470445;32;20112;-80
2022/03/11 02:41:01;;;;;;;14.30;4.87;;;;;;;0.32;34.70;100188.06;4472297;32;20164;-79
2022/03/11 02:43:27;;;;;;;13.50;4.55;;;;;;;0.33;34.49;100187.25;4472022;32;20119;-80
2022/03/11 02:45:53;;;;;;;13.25;4.62;;;;;;;-0.01;35.36;100186.88;4477898;32;20455;-80
2022/03/11 02:48:18;;;;;;;14.63;5.20;;;;;;;0.14;34.79;100193.97;4486316;32;20106;-80
2022/03/11 02:50:44;;;;;;;12.98;4.57;;;;;;;0.13;35.18;100187.03;4486781;31;20113;-80
2022/03/11 02:53:10;;;;;;;13.55;4.43;;;;;;;0.26;34.66;100181.97;4487319;31;20088;-80
2022/03/11 02:55:35;;;;;;;13.62;4.07;;;;;;;0.06;35.01;100179.16;4483485;32;20108;-81
2022/03/11 02:58:01;;;;;;;14.82;4.53;;;;;;;0.15;35.21;100181.88;4487268;32;20088;-80
2022/03/11 03:00:26;;;;;;;13.55;4.97;;;;;;;0.27;35.18;100178.50;4487349;31;20096;-78
2022/03/11 03:02:51;;;;;;;12.60;4.32;;;;;;;0.22;34.78;100181.06;4487288;32;20088;-80
2022/03/11 03:05:17;;;;;;;14.27;4.60;;;;;;;0.07;34.84;100183.50;4484641;32;20456;-80
2022/03/11 03:07:43;;;;;;;14.60;4.50;;;;;;;-0.06;34.98;100185.09;4487354;31;20081;-79
2022/03/11 03:10:10;;;;;;;14.60;4.32;;;;;;;-0.15;35.03;100187.59;4487036;31;20089;-80
2022/03/11 03:12:37;;;;;;;13.48;4.25;;;;;;;0.03;34.57;100182.59;4486028;32;20497;-79
2022/03/11 03:15:02;;;;;;;12.13;4.70;;;;;;;0.02;35.03;100191.25;4487394;31;20088;-80
2022/03/11 03:17:28;;;;;;;13.62;4.75;;;;;;;-0.02;34.79;100190.34;4487164;31;20102;-80
2022/03/11 03:19:54;;;;;;;13.73;4.00;;;;;;;-0.16;34.99;100181.53;4487045;31;20444;-80
2022/03/11 03:22:19;;;;;;;14.45;4.75;;;;;;;-0.32;35.18;100179.63;4487098;32;20092;-80
2022/03/11 03:24:45;;;;;;;14.75;4.75;;;;;;;-0.12;35.09;100185.03;4487271;31;20110;-80
2022/03/11 03:27:10;;;;;;;14.90;3.95;;;;;;;-0.12;35.06;100183.31;4487230;31;20102;-81
2022/03/11 03:29:36;;;;;;;10.90;3.65;;;;;;;-0.02;34.57;100197.22;4487155;31;20130;-79
2022/03/11 03:32:02;;;;;;;14.70;4.90;;;;;;;-0.07;34.73;100183.37;4485984;32;20100;-79
2022/03/11 03:34:29;;;;;;;15.40;4.22;;;;;;;-0.09;34.75;100182.50;4487229;31;20159;-79
2022/03/11 03:36:59;;;;;;;13.95;4.80;;;;;;;-0.22;35.02;100171.97;4487130;32;20436;-80
2022/03/11 03:39:25;;;;;;;12.35;4.30;;;;;;;-0.04;35.18;100171.31;4487057;31;20440;-80
2022/03/11 03:41:51;;;;;;;12.43;4.07;;;;;;;-0.10;35.32;100180.72;4486687;31;20115;-79
2022/03/11 03:44:17;;;;;;;14.07;4.57;;;;;;;-0.03;34.98;100185.13;4487097;31;20080;-79
2022/03/11 03:46:43;;;;;;;13.10;4.10;;;;;;;-0.04;35.24;100175.63;4487101;31;20064;-79
2022/03/11 03:49:09;;;;;;;13.38;4.72;;;;;;;0.03;35.10;100179.16;4487086;31;20222;-79
2022/03/11 03:51:34;;;;;;;15.65;4.70;;;;;;;0.06;35.09;100169.69;4495313;31;20099;-78
2022/03/11 03:54:00;;;;;;;13.35;4.30;;;;;;;0.12;35.02;100176.66;4502649;31;20432;-79
2022/03/11 03:56:26;;;;;;;13.23;4.65;;;;;;;0.08;35.01;100180.94;4502793;31;20080;-80
2022/03/11 03:58:51;;;;;;;14.23;4.35;;;;;;;-0.27;35.76;100178.84;4502696;31;20100;-79
2022/03/11 04:01:16;;;;;;;13.88;4.40;;;;;;;-0.26;35.44;100179.69;4501410;31;20127;-80
2022/03/11 04:03:42;;;;;;;13.25;4.65;;;;;;;-0.30;35.75;100178.78;4501561;31;20092;-80
2022/03/11 04:06:07;;;;;;;15.13;5.25;;;;;;;-0.27;35.91;100188.31;4502751;31;20419;-80
2022/03/11 04:08:33;;;;;;;12.73;4.10;;;;;;;-0.36;36.06;100195.97;4502793;31;20402;-80
2022/03/11 04:10:58;;;;;;;13.77;5.03;;;;;;;-0.24;36.11;100190.94;4502706;31;20112;-80
2022/03/11 04:13:24;;;;;;;14.18;4.43;;;;;;;-0.39;36.33;100186.44;4503003;31;20406;-79
2022/03/11 04:15:49;;;;;;;10.68;3.80;;;;;;;-0.24;36.03;100193.53;4502740;31;20152;-80
2022/03/11 04:18:14;;;;;;;12.50;4.30;;;;;;;-0.37;36.12;100207.19;4502720;31;20127;-79
2022/03/11 04:20:40;;;;;;;13.55;4.87;;;;;;;-0.52;36.55;100197.47;4501120;31;20088;-79
2022/03/11 04:23:07;;;;;;;12.98;4.05;;;;;;;-0.58;36.82;100202.59;4488693;31;20143;-80
2022/03/11 04:25:32;;;;;;;14.87;5.00;;;;;;;-0.86;37.30;100202.22;4502598;31;20114;-81
2022/03/11 04:27:57;;;;;;;12.63;4.75;;;;;;;-0.46;36.73;100198.44;4502779;31;20100;-81
2022/03/11 04:30:23;;;;;;;15.07;4.45;;;;;;;-0.50;37.04;100204.44;4502778;31;20134;-81
2022/03/11 04:32:49;;;;;;;11.88;4.82;;;;;;;-0.41;36.83;100208.84;4502798;31;20134;-81
2022/03/11 04:35:14;;;;;;;13.50;4.70;;;;;;;-0.45;36.75;100204.50;4500799;31;20110;-79
2022/03/11 04:37:39;;;;;;;13.52;4.72;;;;;;;-0.42;36.91;100210.56;4489029;31;20108;-80
2022/03/11 04:40:05;;;;;;;11.85;4.28;;;;;;;-0.46;36.83;100205.34;4485803;31;20422;-79
2022/03/11 04:42:31;;;;;;;13.70;4.20;;;;;;;-0.41;36.84;100207.16;4486456;31;20092;-80
2022/03/11 04:44:56;;;;;;;12.30;4.57;;;;;;;-0.46;36.64;100210.53;4486723;31;20336;-80
2022/03/11 04:47:22;;;;;;;12.48;4.43;;;;;;;-0.46;36.75;100208.81;4486647;31;20232;-80
2022/03/11 04:49:48;;;;;;;12.88;4.78;;;;;;;-0.31;36.56;100205.56;4486345;31;20104;-80
2022/03/11 04:52:13;;;;;;;12.55;4.40;;;;;;;-0.50;37.33;100209.63;4472270;32;20131;-80
2022/03/11 04:54:38;;;;;;;11.98;4.43;;;;;;;-0.35;36.84;100210.66;4486661;31;20176;-80
2022/03/11 04:57:04;;;;;;;13.02;4.30;;;;;;;-0.32;36.68;100218.47;4497027;31;20100;-80
2022/03/11 04:59:29;;;;;;;14.85;4.53;;;;;;;-0.57;36.88;100218.16;4487221;31;20092;-80
2022/03/11 05:01:54;;;;;;;13.40;4.65;;;;;;;-0.61;37.30;100226.72;4486440;31;20129;-80
2022/03/11 05:04:20;;;;;;;14.93;5.05;;;;;;;-0.60;37.11;100221.56;4486602;32;20137;-80
2022/03/11 05:06:45;;;;;;;12.57;4.45;;;;;;;-0.45;36.89;100225.19;4486420;31;20100;-80
2022/03/11 05:09:11;;;;;;;14.15;4.40;;;;;;;-0.41;37.31;100222.69;4492631;31;20096;-79
2022/03/11 05:11:36;;;;;;;13.90;4.57;;;;;;;-0.44;37.21;100224.38;4502180;31;20084;-80
2022/03/11 05:14:02;;;;;;;15.52;4.60;;;;;;;-0.31;36.78;100228.84;4489862;31;20123;-80
2022/03/11 05:16:28;;;;;;;15.45;4.90;;;;;;;-0.26;37.03;100231.50;4488265;31;20092;-80
2022/03/11 05:18:53;;;;;;;13.38;4.70;;;;;;;-0.21;36.84;100229.84;4488077;31;20093;-80
2022/03/11 05:21:20;;;;;;;13.88;4.10;;;;;;;-0.11;36.10;100225.62;4488117;31;20119;-79
2022/03/11 05:23:45;;;;;;;13.02;4.62;;;;;;;-0.27;36.14;100233.22;4488527;31;20096;-80
2022/03/11 05:26:24;;;;;;;13.32;4.50;;;;;;;0.03;36.11;100225.78;4499716;31;20114;-79
2022/03/11 05:28:54;;;;;;;13.50;4.50;;;;;;;-0.09;35.72;100229.97;4503862;31;20115;-80
2022/03/11 05:31:20;;;;;;;13.62;4.65;;;;;;;0.15;35.43;100236.28;4503996;31;20598;-80
2022/03/11 05:33:47;;;;;;;13.13;4.53;;;;;;;-0.03;35.84;100231.78;4489360;31;20446;-79
2022/03/11 05:36:12;;;;;;;13.20;4.53;;;;;;;0.21;35.32;100218.19;4503959;31;20127;-79
2022/03/11 05:38:38;;;;;;;14.90;4.82;;;;;;;0.35;35.21;100234.78;4502198;31;20390;-81
2022/03/11 05:41:03;;;;;;;13.77;4.97;;;;;;;0.50;34.89;100236.66;4487889;31;20076;-81
2022/03/11 05:43:29;;;;;;;13.00;4.45;;;;;;;0.61;34.87;100233.28;4487824;31;20185;-79
2022/03/11 05:45:54;;;;;;;12.98;4.57;;;;;;;0.75;34.89;100235.16;4474252;32;20160;-80
2022/03/11 05:48:19;;;;;;;13.85;4.60;;;;;;;0.88;34.48;100233.50;4486984;31;20096;-80
2022/03/11 05:50:45;;;;;;;15.15;4.80;;;;;;;0.91;34.32;100237.88;4488045;32;20093;-80
2022/03/11 05:53:10;;;;;;;12.45;4.12;;;;;;;0.95;34.20;100235.31;4487376;32;20110;-79
2022/03/11 05:55:36;;;;;;;13.43;4.75;;;;;;;1.07;34.42;100241.44;4487199;32;20084;-80
2022/03/11 05:58:01;;;;;;;11.70;4.18;;;;;;;1.12;33.59;100244.94;4487583;32;20428;-80
2022/03/11 06:00:26;;;;;;;13.20;4.75;;;;;;;1.23;33.60;100245.88;4500004;31;20363;-80
2022/03/11 06:02:52;;;;;;;12.68;4.40;;;;;;;1.14;33.92;100243.22;4503653;31;20094;-80
2022/03/11 06:05:17;;;;;;;14.00;4.40;;;;;;;1.35;33.26;100256.38;4494365;31;20472;-81
2022/03/11 06:07:43;;;;;;;11.30;4.50;;;;;;;1.38;33.01;100261.56;4487732;31;20115;-80
2022/03/11 06:10:09;;;;;;;12.40;4.40;;;;;;;1.41;33.20;100271.13;4487850;31;20142;-80
2022/03/11 06:12:34;;;;;;;14.25;4.82;;;;;;;1.46;33.13;100273.72;4487668;31;20096;-81
2022/03/11 06:15:05;;;;;;;11.75;4.28;;;;;;;1.40;32.85;100265.91;4486416;32;20108;-79
2022/03/11 06:17:30;;;;;;;14.02;4.72;;;;;;;1.47;32.89;100260.75;4486464;32;20491;-80
2022/03/11 06:19:56;;;;;;;14.60;5.00;;;;;;;1.50;33.20;100265.09;4488399;31;20107;-80
2022/03/11 06:22:21;;;;;;;12.18;4.72;;;;;;;1.56;33.32;100267.72;4487490;31;20080;-80
2022/03/11 06:24:46;;;;;;;14.23;4.70;;;;;;;1.61;32.85;100267.78;4487653;31;20107;-79
2022/03/11 06:27:12;;;;;;;15.68;5.07;;;;;;;1.64;33.03;100267.75;4486740;31;20131;-80
2022/03/11 06:29:37;;;;;;;15.98;5.60;;;;;;;1.50;32.86;100268.56;4487451;31;20102;-79
2022/03/11 06:32:03;;;;;;;11.48;4.30;;;;;;;1.66;32.96;100266.03;4487660;31;20108;-80
2022/03/11 06:34:29;;;;;;;14.55;4.70;;;;;;;1.57;32.59;100270.34;4486352;32;20127;-80
2022/03/11 06:36:55;;;;;;;13.62;5.30;;;;;;;1.69;32.69;100271.28;4487478;31;20092;-80
2022/03/11 06:39:20;;;;;;;13.30;5.07;;;;;;;1.83;32.67;100263.53;4488265;31;20092;-79
2022/03/11 06:41:45;;;;;;;14.65;5.65;;;;;;;1.82;32.71;100275.66;4487478;31;20084;-81
2022/03/11 06:44:11;;;;;;;16.85;5.43;;;;;;;1.59;32.71;100282.47;4487472;31;20114;-81
2022/03/11 06:46:36;;;;;;;15.52;5.20;;;;;;;1.94;31.87;100278.31;4487684;31;20085;-81
2022/03/11 06:49:03;;;;;;;13.93;5.15;;;;;;;2.00;31.83;100277.47;4496052;31;20114;-81
2022/03/11 06:51:28;;;;;;;14.38;4.90;;;;;;;1.95;32.16;100276.56;4503209;31;20113;-81
2022/03/11 06:53:53;;;;;;;13.35;4.43;;;;;;;2.06;31.57;100272.28;4503220;31;20367;-80
2022/03/11 06:56:19;;;;;;;15.55;5.50;;;;;;;1.95;31.53;100276.56;4503196;31;20148;-80
2022/03/11 06:58:44;;;;;;;14.85;5.00;;;;;;;1.89;31.87;100276.56;4502967;31;20107;-80
2022/03/11 07:01:10;;;;;;;12.65;5.10;;;;;;;1.80;31.32;100284.28;4503146;31;20106;-80
2022/03/11 07:03:35;;;;;;;13.48;4.43;;;;;;;1.92;30.65;100276.56;4501711;31;20439;-79
2022/03/11 07:06:00;;;;;;;15.05;5.00;;;;;;;1.75;31.00;100289.47;4503135;31;20092;-79
2022/03/11 07:08:28;;;;;;;14.60;5.00;;;;;;;1.66;30.90;100292.91;4502932;31;20084;-80
2022/03/11 07:10:53;;;;;;;12.70;4.43;;;;;;;1.76;30.71;100288.63;4503160;31;20084;-80
2022/03/11 07:13:18;;;;;;;12.50;4.40;;;;;;;1.77;30.82;100287.75;4503190;31;20096;-80
2022/03/11 07:15:45;;;;;;;15.55;5.15;;;;;;;1.73;30.59;100286.88;4488612;31;20144;-79
2022/03/11 07:18:12;;;;;;;14.05;4.47;;;;;;;1.87;30.94;100288.69;4501444;31;20152;-81
2022/03/11 07:20:37;;;;;;;25.10;4.90;;;;;;;1.98;30.45;100296.53;4503007;31;20092;-79
2022/03/11 07:23:03;;;;;;;12.93;4.35;;;;;;;1.86;30.75;100289.56;4475694;31;20415;-80
2022/03/11 07:25:28;;;;;;;11.70;4.72;;;;;;;1.89;29.84;100292.16;4503182;31;20130;-79
2022/03/11 07:27:54;;;;;;;15.23;5.00;;;;;;;1.88;30.26;100301.69;4502647;31;20088;-79
2022/03/11 07:30:19;;;;;;;11.68;4.10;;;;;;;1.59;30.56;100301.53;4501768;31;20127;-79
2022/03/11 07:32:46;;;;;;;13.10;4.25;;;;;;;1.81;30.62;100301.63;4469715;31;564201;-78
2022/03/11 07:35:13;;;;;;;12.13;4.70;;;;;;;1.67;30.27;100304.16;4502771;31;20095;-78
2022/03/11 07:37:40;;;;;;;15.05;4.35;;;;;;;1.71;30.49;100288.59;4502378;31;20088;-79
2022/03/11 07:40:06;;;;;;;11.52;4.12;;;;;;;1.70;30.33;100286.88;4502677;31;20179;-78
2022/03/11 07:42:32;;;;;;;12.68;4.55;;;;;;;1.69;30.05;100289.44;4500640;31;20131;-80
2022/03/11 07:44:57;;;;;;;11.77;4.35;;;;;;;1.83;30.21;100292.97;4500859;31;20118;-81
2022/03/11 07:47:23;;;;;;;10.93;4.25;;;;;;;1.89;30.32;100289.53;4500460;31;20115;-80
2022/03/11 07:49:48;;;;;;;14.95;4.30;;;;;;;2.02;30.23;100293.09;4501843;31;20096;-79
2022/03/11 07:52:15;;;;;;;14.98;4.62;;;;;;;2.00;29.85;100297.41;4501909;31;20096;-81
2022/03/11 07:54:45;;;;;;;14.98;4.87;;;;;;;1.95;29.78;100294.75;4488512;31;20496;-80
2022/03/11 07:57:11;;;;;;;13.25;4.50;;;;;;;2.03;29.74;100300.91;4502761;31;20114;-80
2022/03/11 07:59:37;;;;;;;13.43;4.87;;;;;;;2.07;29.87;100296.59;4502904;31;20110;-80
2022/03/11 08:02:03;;;;;;;14.10;4.85;;;;;;;2.21;29.65;100301.84;4502736;31;20089;-80
2022/03/11 08:04:29;;;;;;;12.68;4.85;;;;;;;2.15;29.67;100298.34;4502744;31;20089;-79
2022/03/11 08:06:55;;;;;;;14.27;4.97;;;;;;;2.33;29.88;100294.06;4501210;31;20109;-80
2022/03/11 08:09:20;;;;;;;13.62;4.85;;;;;;;2.13;29.83;100300.06;4502579;31;20123;-80
2022/03/11 08:11:46;;;;;;;13.98;4.47;;;;;;;2.06;30.31;100298.28;4502640;31;20356;-80
2022/03/11 08:14:13;;;;;;;14.57;4.07;;;;;;;2.12;29.75;100300.03;4502683;31;20096;-79
2022/03/11 08:16:39;;;;;;;13.32;3.95;;;;;;;2.16;29.04;100299.19;4488265;31;20091;-79
2022/03/11 08:19:06;;;;;;;14.02;3.95;;;;;;;2.05;28.69;100301.78;4502579;31;20087;-79
2022/03/11 08:21:32;;;;;;;12.77;4.10;;;;;;;1.93;28.82;100294.78;4502554;31;20200;-80
2022/03/11 08:23:57;;;;;;;16.25;4.80;;;;;;;2.07;28.26;100284.44;4502690;31;20420;-80
2022/03/11 08:26:25;;;;;;;13.27;3.87;;;;;;;2.20;28.47;100280.13;4501220;31;20174;-80
2022/03/11 08:28:50;;;;;;;13.57;4.20;;;;;;;2.31;27.94;100283.66;4496936;31;20133;-78
2022/03/11 08:31:17;;;;;;;13.32;4.20;;;;;;;2.12;28.16;100293.09;4489789;31;20399;-80
2022/03/11 08:33:42;;;;;;;13.88;4.37;;;;;;;2.27;27.38;100279.31;4490963;31;20116;-79
2022/03/11 08:36:08;;;;;;;12.90;4.30;;;;;;;2.36;28.03;100275.88;4480078;31;20208;-80
2022/03/11 08:38:33;;;;;;;12.57;4.10;;;;;;;2.38;27.59;100279.34;4478319;31;20182;-80
2022/03/11 08:41:00;;;;;;;13.52;3.75;;;;;;;2.27;27.67;100278.44;4493826;31;20622;-79
2022/03/11 08:43:26;;;;;;;12.57;4.12;;;;;;;2.42;27.40;100280.22;4493383;31;20118;-80
2022/03/11 08:45:51;;;;;;;11.70;4.10;;;;;;;2.48;27.93;100273.28;4494911;31;20096;-79
2022/03/11 08:48:16;;;;;;;14.18;4.22;;;;;;;2.77;27.38;100277.69;4493911;31;20108;-79
2022/03/11 08:50:42;;;;;;;13.02;4.00;;;;;;;2.71;27.55;100272.47;4492827;31;20189;-79
2022/03/11 08:53:07;;;;;;;12.25;4.05;;;;;;;2.67;26.99;100265.53;4494250;31;20117;-80
2022/03/11 08:55:33;;;;;;;13.07;4.05;;;;;;;2.70;27.63;100260.31;4494617;31;20108;-79
2022/03/11 08:57:58;;;;;;;11.80;3.95;;;;;;;2.78;27.00;100262.94;4495289;31;20121;-78
2022/03/11 09:00:25;;;;;;;12.63;4.32;;;;;;;3.01;26.78;100255.13;4492956;31;20095;-81
2022/03/11 09:02:51;;;;;;;12.02;3.90;;;;;;;2.89;27.54;100258.59;4493882;31;20123;-79
2022/03/11 09:05:18;;;;;;;13.32;4.03;;;;;;;3.26;26.55;100256.84;4493435;31;20545;-79
2022/03/11 09:07:44;;;;;;;13.23;4.10;;;;;;;3.18;26.12;100257.72;4493119;31;20076;-80
2022/03/11 09:10:11;;;;;;;13.13;4.18;;;;;;;3.11;26.47;100247.31;4477365;31;20538;-79
2022/03/11 09:12:37;;;;;;;11.95;4.40;;;;;;;3.15;26.81;100259.47;4491698;31;20450;-79
2022/03/11 09:15:04;;;;;;;12.70;3.90;;;;;;;3.31;26.46;100262.06;4478634;31;20179;-80
2022/03/11 09:17:29;;;;;;;14.15;4.00;;;;;;;3.28;26.33;100249.91;4493439;31;20114;-77
2022/03/11 09:19:55;;;;;;;13.43;4.18;;;;;;;3.27;26.40;100253.38;4492822;31;20084;-78
2022/03/11 09:22:21;;;;;;;11.98;3.90;;;;;;;3.09;26.21;100237.75;4496262;31;20403;-77
2022/03/11 09:24:47;;;;;;;12.30;3.70;;;;;;;3.14;26.20;100246.44;4496632;31;20111;-78
2022/03/11 09:27:13;;;;;;;12.57;4.12;;;;;;;3.21;26.29;100239.50;4484541;32;20096;-78
2022/03/11 09:29:39;;;;;;;11.35;3.78;;;;;;;3.33;26.04;100234.28;4485820;31;20118;-78
2022/03/11 09:32:06;;;;;;;11.05;3.80;;;;;;;3.37;25.87;100235.12;4485717;31;20107;-78
2022/03/11 09:34:32;;;;;;;10.63;3.57;;;;;;;3.41;25.77;100236.87;4485880;31;20451;-78
2022/03/11 09:36:57;;;;;;;11.27;3.67;;;;;;;3.44;25.42;100229.03;4484046;31;20110;-79
2022/03/11 09:39:24;;;;;;;11.55;3.75;;;;;;;3.36;25.58;100231.66;4476248;31;20128;-79
2022/03/11 09:41:50;;;;;;;12.20;3.97;;;;;;;3.39;25.44;100229.03;4486978;31;20127;-77
2022/03/11 09:44:16;;;;;;;11.15;3.85;;;;;;;3.34;25.36;100226.47;4487016;31;20110;-78
2022/03/11 09:46:42;;;;;;;11.68;4.07;;;;;;;3.46;25.41;100225.56;4484351;31;20096;-78
2022/03/11 09:49:08;;;;;;;11.57;3.83;;;;;;;3.48;25.73;100225.56;4478711;31;20097;-77
2022/03/11 09:51:35;;;;;;;11.98;3.62;;;;;;;3.64;25.34;100215.97;4487287;31;20111;-77
2022/03/11 09:54:01;;;;;;;12.85;4.30;;;;;;;3.86;25.24;100216.72;4471156;32;20096;-77
2022/03/11 09:56:26;;;;;;;11.77;3.80;;;;;;;3.92;24.70;100212.38;4471586;32;20147;-78
2022/03/11 09:58:53;;;;;;;13.73;3.85;;;;;;;3.82;24.91;100207.19;4471328;32;20430;-78
2022/03/11 10:01:19;;;;;;;11.45;4.45;;;;;;;3.88;25.03;100212.38;4487067;32;20088;-78
2022/03/11 10:03:44;;;;;;;11.98;4.00;;;;;;;3.90;25.05;100218.44;4488616;31;20175;-78
2022/03/11 10:06:09;;;;;;;11.52;3.78;;;;;;;4.01;24.86;100211.44;4491229;31;20119;-77
2022/03/11 10:08:36;;;;;;;13.35;4.32;;;;;;;4.17;24.59;100213.97;4488934;31;20084;-78
2022/03/11 10:11:20;;;;;;;11.75;4.10;;;;;;;4.10;24.31;100220.97;4488022;31;20101;-79
2022/03/11 10:13:46;;;;;;;12.68;3.85;;;;;;;4.04;24.50;100219.25;4491126;31;20475;-78
2022/03/11 10:16:22;;;;;;;11.45;3.90;;;;;;;3.93;24.60;100214.09;4479752;31;20085;-78
2022/03/11 10:18:57;;;;;;;15.02;4.50;;;;;;;4.04;24.65;100213.19;4492105;31;20143;-78
2022/03/11 10:21:39;;;;;;;11.98;4.35;;;;;;;4.24;24.51;100210.47;4479517;31;20112;-78
2022/03/11 10:24:10;;;;;;;11.43;3.55;;;;;;;4.24;24.80;100215.69;4477039;32;20081;-77
2022/03/11 10:26:40;;;;;;;12.70;3.85;;;;;;;4.34;24.68;100209.53;4491382;31;20118;-78
2022/03/11 10:29:08;;;;;;;11.65;3.62;;;;;;;4.28;23.97;100215.66;4492298;31;20100;-78
2022/03/11 10:31:34;;;;;;;;;;;;;;;4.44;23.93;100200.78;4491120;31;20486;-79
2022/03/11 10:34:12;;;;;;;10.90;3.65;;;;;;;4.32;23.99;100199.09;4488156;31;20383;-78
2022/03/11 10:36:37;;;;;;;12.30;3.78;;;;;;;4.21;24.29;100205.25;4490484;31;20096;-80
2022/03/11 10:39:17;;;;;;;13.30;4.28;;;;;;;4.27;24.44;100202.63;4477163;31;20135;-80
2022/03/11 10:41:43;;;;;;;12.90;4.00;;;;;;;4.39;23.97;100212.97;4477399;31;20171;-80
2022/03/11 10:44:09;;;;;;;11.75;3.80;;;;;;;3.99;24.73;100205.38;4492948;31;20080;-79
2022/03/11 10:46:35;;;;;;;11.52;3.78;;;;;;;4.24;24.47;100202.63;4487720;31;20137;-80
2022/03/11 10:49:01;;;;;;;9.38;3.33;;;;;;;4.27;24.08;100206.09;4499788;31;20160;-79
2022/03/11 10:51:33;;;;;;;11.12;3.62;;;;;;;4.38;23.69;100190.34;4478395;31;20100;-80
2022/03/11 10:54:04;;;;;;;10.05;3.60;;;;;;;4.44;23.26;100186.84;4483323;31;20084;-80
2022/03/11 10:56:36;;;;;;;10.70;3.47;;;;;;;4.23;23.40;100193.97;4493296;31;20076;-79
2022/03/11 10:59:14;;;;;;;10.77;3.20;;;;;;;4.24;23.18;100184.38;4479480;32;20092;-79
2022/03/11 11:01:41;;;;;;;14.50;4.10;;;;;;;4.43;23.46;100179.91;4486712;31;20084;-80
2022/03/11 11:04:08;;;;;;;16.35;3.87;;;;;;;4.19;23.40;100173.09;4493061;31;20092;-79
2022/03/11 11:06:34;;;;;;;13.05;3.42;;;;;;;4.52;23.20;100172.03;4478677;31;20104;-79
2022/03/11 11:09:01;;;;;;;12.07;3.70;;;;;;;4.60;23.22;100165.00;4480033;32;20134;-79
2022/03/11 11:11:27;;;;;;;11.77;3.65;;;;;;;4.68;23.47;100157.97;4493686;31;20135;-79
2022/03/11 11:13:52;;;;;;;10.77;3.40;;;;;;;4.80;22.69;100154.38;4478552;31;20106;-80
2022/03/11 11:16:24;;;;;;;14.50;4.15;;;;;;;4.66;22.80;100157.09;4489028;31;20100;-79
2022/03/11 11:18:51;;;;;;;13.05;3.60;;;;;;;4.83;23.03;100151.75;4479892;31;20132;-80